Time;durP1;ratioP1;P1;durP2;ratioP2;P2;SDS_P1;SDS_P2;PMS_P1;PMS_P2;Temp;Humidity;BMP_temperature;BMP_pressure;BME280_temperature;BME280_humidity;BME280_pressure;Samples;Min_cycle;Max_cycle;Signal;HPM_P1;HPM_P2
2022/07/15 00:01:38;;;;;;;4.43;2.80;;;;;;;17.87;52.30;98965.59;5012180;28;20189;-49
2022/07/15 00:04:06;;;;;;;4.07;3.20;;;;;;;17.85;52.45;98971.09;5010747;28;20564;-49
2022/07/15 00:06:33;;;;;;;7.13;3.00;;;;;;;17.80;52.33;98967.38;5011986;28;20597;-49
2022/07/15 00:09:01;;;;;;;3.77;2.70;;;;;;;17.74;52.13;98965.47;5012032;28;20189;-49
2022/07/15 00:11:28;;;;;;;6.13;3.13;;;;;;;17.67;52.80;98968.06;5012220;28;20297;-49
2022/07/15 00:13:55;;;;;;;6.83;2.53;;;;;;;17.62;52.54;98965.19;5011699;28;20205;-49
2022/07/15 00:16:22;;;;;;;8.20;2.80;;;;;;;17.60;53.01;98967.19;5015856;28;20189;-49
2022/07/15 00:18:49;;;;;;;5.77;2.80;;;;;;;17.52;52.70;98960.19;5016025;28;20679;-49
2022/07/15 00:21:16;;;;;;;5.17;2.90;;;;;;;17.49;52.27;98961.41;5015590;28;20665;-49
2022/07/15 00:23:44;;;;;;;5.67;3.13;;;;;;;17.49;52.27;98955.31;5015167;28;20213;-49
2022/07/15 00:26:12;;;;;;;3.97;2.80;;;;;;;17.47;52.53;98963.41;5015669;28;20552;-49
2022/07/15 00:28:39;;;;;;;4.77;3.00;;;;;;;17.47;52.58;98960.78;5015725;28;20689;-49
2022/07/15 00:31:07;;;;;;;4.03;2.53;;;;;;;17.45;52.77;98964.63;5015424;28;20237;-50
2022/07/15 00:33:33;;;;;;;5.10;2.70;;;;;;;17.38;52.92;98962.72;4997473;28;20211;-50
2022/07/15 00:36:01;;;;;;;6.53;2.97;;;;;;;17.36;53.08;98961.25;4997742;28;20201;-50
2022/07/15 00:38:28;;;;;;;6.60;3.33;;;;;;;17.32;53.34;98952.06;4997826;28;20197;-50
2022/07/15 00:40:54;;;;;;;3.53;2.60;;;;;;;17.27;53.71;98944.75;4996125;28;20650;-50
2022/07/15 00:43:23;;;;;;;5.00;3.00;;;;;;;17.22;53.56;98950.56;4995727;28;20285;-50
2022/07/15 00:45:50;;;;;;;5.10;2.70;;;;;;;17.17;53.45;98952.13;4997732;28;20246;-50
2022/07/15 00:48:17;;;;;;;5.97;3.00;;;;;;;17.16;53.61;98950.50;5015487;28;20212;-50
2022/07/15 00:50:44;;;;;;;5.90;2.50;;;;;;;17.11;53.84;98946.59;4997590;28;20195;-50
2022/07/15 00:53:17;;;;;;;4.57;2.60;;;;;;;17.14;53.45;98945.38;4995210;28;20691;-50
2022/07/15 00:55:46;;;;;;;9.43;3.20;;;;;;;17.13;53.29;98948.22;4995409;28;20229;-50
2022/07/15 00:58:17;;;;;;;3.40;2.30;;;;;;;17.22;52.33;98942.66;4997572;28;20206;-50
2022/07/15 01:00:47;;;;;;;5.53;2.57;;;;;;;17.23;52.32;98946.91;5015079;28;20197;-49
2022/07/15 01:03:17;;;;;;;4.43;2.60;;;;;;;17.27;52.85;98945.53;5014812;28;20580;-50
2022/07/15 01:05:46;;;;;;;4.47;2.30;;;;;;;17.22;52.88;98947.13;4997240;28;20573;-50
2022/07/15 01:08:13;;;;;;;3.03;2.13;;;;;;;17.20;52.85;98942.00;4997538;28;20199;-49
2022/07/15 01:10:42;;;;;;;4.33;2.60;;;;;;;17.15;52.97;98939.13;5015015;28;20559;-50
2022/07/15 01:13:09;;;;;;;5.33;2.70;;;;;;;17.08;53.93;98938.22;4996800;28;20216;-50
2022/07/15 01:15:36;;;;;;;7.30;2.60;;;;;;;16.94;53.54;98940.69;5013712;28;20214;-50
2022/07/15 01:18:05;;;;;;;4.43;2.27;;;;;;;16.89;54.35;98937.78;4997294;28;20254;-50
2022/07/15 01:20:41;;;;;;;4.23;2.33;;;;;;;16.84;54.62;98932.25;4997272;28;20189;-50
2022/07/15 01:23:08;;;;;;;5.97;2.70;;;;;;;16.82;54.48;98931.63;4996843;28;20221;-50
2022/07/15 01:25:40;;;;;;;4.17;2.30;;;;;;;16.72;54.25;98939.00;4996149;28;20193;-50
2022/07/15 01:28:11;;;;;;;7.03;2.47;;;;;;;16.72;54.20;98934.53;4997175;28;20662;-50
2022/07/15 01:30:39;;;;;;;4.73;2.63;;;;;;;16.71;54.44;98932.09;5014927;28;20185;-50
2022/07/15 01:33:08;;;;;;;4.70;2.10;;;;;;;16.72;54.25;98933.72;4996738;28;20209;-50
2022/07/15 01:35:36;;;;;;;6.73;2.20;;;;;;;16.74;54.58;98937.00;5015856;28;20184;-50
2022/07/15 01:38:05;;;;;;;5.27;2.23;;;;;;;16.74;54.06;98929.88;4990519;28;20647;-50
2022/07/15 01:40:32;;;;;;;3.90;2.30;;;;;;;16.76;54.97;98929.72;4987260;28;20235;-50
2022/07/15 01:42:59;;;;;;;4.37;2.50;;;;;;;16.71;54.97;98924.19;4995231;28;20299;-50
2022/07/15 01:45:26;;;;;;;5.53;2.00;;;;;;;16.65;54.86;98926.53;5002448;28;20218;-50
2022/07/15 01:49:21;;;;;;;3.43;2.23;;;;;;;16.57;55.49;98923.16;5007065;28;20203;-50
2022/07/15 01:51:18;;;;;;;4.43;2.37;;;;;;;16.43;55.30;98922.97;5014616;28;20222;-50
2022/07/15 01:53:47;;;;;;;5.97;2.20;;;;;;;16.33;55.97;98931.16;5004266;28;20213;-50
2022/07/15 01:56:14;;;;;;;5.77;2.40;;;;;;;16.25;56.83;98918.06;4977188;28;20185;-50
2022/07/15 01:58:41;;;;;;;3.30;2.30;;;;;;;16.20;57.25;98929.16;4977185;28;20287;-49
2022/07/15 02:01:09;;;;;;;3.50;2.37;;;;;;;16.19;57.76;98927.53;4991833;28;20197;-50
2022/07/15 02:03:37;;;;;;;5.07;2.27;;;;;;;16.17;56.74;98926.88;5007590;28;20210;-50
2022/07/15 02:06:05;;;;;;;3.70;2.70;;;;;;;16.06;57.37;98922.06;5016205;28;20190;-49
2022/07/15 02:08:32;;;;;;;5.50;2.40;;;;;;;15.99;58.22;98924.56;5016246;28;20227;-49
2022/07/15 02:11:01;;;;;;;5.50;2.20;;;;;;;15.92;58.18;98924.47;5016017;28;20201;-50
2022/07/15 02:13:29;;;;;;;3.90;2.27;;;;;;;15.82;57.55;98920.44;5015609;28;20262;-50
2022/07/15 02:15:58;;;;;;;3.30;2.17;;;;;;;15.71;57.50;98922.50;5016173;28;20193;-50
2022/07/15 02:18:26;;;;;;;4.87;2.27;;;;;;;15.62;57.71;98918.28;5015996;28;20209;-50
2022/07/15 02:20:54;;;;;;;4.40;2.60;;;;;;;15.64;58.12;98918.94;5015972;28;20198;-50
2022/07/15 02:23:20;;;;;;;3.27;2.27;;;;;;;15.56;57.92;98917.16;5015566;28;20306;-50
2022/07/15 02:25:48;;;;;;;4.57;2.30;;;;;;;15.49;58.36;98911.81;5015771;28;20228;-50
2022/07/15 02:28:24;;;;;;;3.70;2.33;;;;;;;15.43;58.92;98916.94;5015812;28;20193;-49
2022/07/15 02:30:51;;;;;;;4.07;2.00;;;;;;;15.47;59.23;98916.41;5015630;28;20692;-50
2022/07/15 02:33:18;;;;;;;3.03;2.00;;;;;;;15.44;59.21;98914.13;5015403;28;20270;-49
2022/07/15 02:35:46;;;;;;;7.13;2.80;;;;;;;15.40;59.76;98912.00;5015575;28;20186;-50
2022/07/15 02:38:13;;;;;;;3.67;2.53;;;;;;;15.31;59.53;98916.53;5033304;28;20185;-50
2022/07/15 02:40:41;;;;;;;4.67;2.33;;;;;;;15.23;59.30;98909.53;5015173;28;20235;-50
2022/07/15 02:43:09;;;;;;;2.80;2.10;;;;;;;15.20;59.67;98918.56;5015402;28;20289;-50
2022/07/15 02:45:39;;;;;;;4.07;2.23;;;;;;;15.15;60.07;98915.63;5015579;28;20345;-49
2022/07/15 02:48:09;;;;;;;4.63;2.60;;;;;;;15.11;60.24;98916.97;5015472;28;20198;-50
2022/07/15 02:50:44;;;;;;;6.33;2.50;;;;;;;15.13;60.34;98920.25;5015513;28;20616;-50
2022/07/15 02:53:14;;;;;;;7.23;2.97;;;;;;;15.09;60.38;98920.78;5014933;28;20292;-50
2022/07/15 02:55:42;;;;;;;4.87;2.37;;;;;;;15.01;60.38;98927.72;5015434;28;20249;-50
2022/07/15 02:58:09;;;;;;;4.20;2.43;;;;;;;14.96;60.84;98924.78;5015368;28;20198;-50
2022/07/15 03:00:39;;;;;;;3.73;2.37;;;;;;;14.99;61.42;98928.84;5015472;28;20193;-50
2022/07/15 03:03:07;;;;;;;4.40;2.50;;;;;;;14.98;60.90;98932.47;5032897;28;20377;-50
2022/07/15 03:05:37;;;;;;;3.63;2.57;;;;;;;14.99;60.87;98934.94;5015018;28;20224;-50
2022/07/15 03:08:05;;;;;;;5.60;2.83;;;;;;;14.90;61.07;98928.91;5015453;28;20202;-50
2022/07/15 03:10:32;;;;;;;2.70;2.30;;;;;;;14.81;60.56;98929.94;5015281;28;20660;-49
2022/07/15 03:12:59;;;;;;;6.50;2.43;;;;;;;14.74;61.74;98929.78;5015006;28;20219;-49
2022/07/15 03:15:27;;;;;;;5.53;2.67;;;;;;;14.78;62.16;98935.53;5015404;28;20191;-50
2022/07/15 03:17:56;;;;;;;4.50;2.70;;;;;;;14.78;61.84;98934.72;5015331;28;20254;-50
2022/07/15 03:20:26;;;;;;;8.17;2.20;;;;;;;14.68;61.68;98930.44;5015324;28;20205;-49
2022/07/15 03:22:54;;;;;;;6.93;2.57;;;;;;;14.60;62.21;98923.41;5014951;28;20226;-50
2022/07/15 03:25:21;;;;;;;4.30;2.00;;;;;;;14.54;62.48;98931.97;5015189;28;20270;-50
2022/07/15 03:27:48;;;;;;;3.63;2.50;;;;;;;14.70;61.87;98923.25;5015151;28;20198;-49
2022/07/15 03:30:16;;;;;;;5.97;2.60;;;;;;;14.69;62.40;98932.13;5015218;28;20196;-50
2022/07/15 03:32:43;;;;;;;5.23;2.57;;;;;;;14.64;62.13;98929.13;5014573;28;20214;-50
2022/07/15 03:35:31;;;;;;;3.67;2.70;;;;;;;14.58;62.61;98933.28;5031419;28;20197;-50
2022/07/15 03:37:58;;;;;;;5.07;2.40;;;;;;;14.53;63.11;98925.09;5009686;28;20196;-49
2022/07/15 03:40:26;;;;;;;4.23;2.50;;;;;;;14.51;63.03;98936.72;4995224;28;20201;-50
2022/07/15 03:42:54;;;;;;;6.20;2.40;;;;;;;14.52;63.22;98928.69;4994909;28;20272;-50
2022/07/15 03:45:20;;;;;;;6.07;2.43;;;;;;;14.49;62.47;98929.03;5003213;28;20207;-50
2022/07/15 03:47:50;;;;;;;6.37;2.77;;;;;;;14.51;63.16;98929.69;5011536;28;20202;-50
2022/07/15 03:50:18;;;;;;;5.27;2.50;;;;;;;14.54;63.39;98934.59;4994575;28;20190;-49
2022/07/15 03:52:47;;;;;;;8.40;2.93;;;;;;;14.54;62.76;98937.22;4994927;28;20240;-49
2022/07/15 03:55:14;;;;;;;3.50;2.60;;;;;;;14.54;63.31;98936.41;4995000;28;20185;-50
2022/07/15 03:57:43;;;;;;;7.13;2.60;;;;;;;14.60;63.76;98933.94;5002905;28;20193;-50
2022/07/15 04:00:11;;;;;;;5.53;2.37;;;;;;;14.75;63.69;98933.25;5002924;28;20661;-50
2022/07/15 04:02:42;;;;;;;4.73;2.43;;;;;;;14.85;63.67;98930.41;5012859;28;20260;-50
2022/07/15 04:05:09;;;;;;;3.40;2.30;;;;;;;14.91;62.53;98929.72;4995077;28;20209;-50
2022/07/15 04:07:36;;;;;;;3.37;2.47;;;;;;;15.11;61.88;98937.19;5028159;28;20190;-49
2022/07/15 04:10:07;;;;;;;3.60;2.37;;;;;;;15.31;61.42;98945.47;5012943;28;20196;-49
2022/07/15 04:12:34;;;;;;;4.77;2.30;;;;;;;15.38;61.71;98938.50;4994775;28;20244;-50
2022/07/15 04:15:01;;;;;;;3.87;2.60;;;;;;;15.46;61.16;98945.50;4995342;28;20184;-50
2022/07/15 04:17:28;;;;;;;6.20;2.40;;;;;;;15.50;60.75;98941.53;4995011;28;20669;-49
2022/07/15 04:19:56;;;;;;;6.90;2.30;;;;;;;15.55;61.39;98943.66;4995130;28;20197;-50
2022/07/15 04:22:23;;;;;;;3.67;2.20;;;;;;;15.61;61.42;98942.97;4994908;28;20206;-50
2022/07/15 04:24:51;;;;;;;5.67;2.37;;;;;;;15.64;61.15;98947.88;4994792;28;20241;-50
2022/07/15 04:27:19;;;;;;;5.73;2.70;;;;;;;15.65;62.08;98947.69;4995104;28;20193;-50
2022/07/15 04:29:47;;;;;;;6.00;2.57;;;;;;;15.65;60.93;98955.59;5012723;28;20185;-49
2022/07/15 04:32:16;;;;;;;3.50;2.40;;;;;;;15.66;60.87;98959.03;4994738;28;20279;-49
2022/07/15 04:34:48;;;;;;;6.07;2.63;;;;;;;15.72;60.61;98958.34;4995118;28;20756;-50
2022/07/15 04:37:15;;;;;;;6.23;2.60;;;;;;;15.81;60.60;98960.91;4995059;28;20197;-50
2022/07/15 04:39:48;;;;;;;4.53;2.67;;;;;;;15.90;60.72;98967.78;4994763;28;20228;-50
2022/07/15 04:42:17;;;;;;;5.37;2.90;;;;;;;15.94;60.56;98967.25;4994500;28;20297;-50
2022/07/15 04:44:47;;;;;;;7.70;2.60;;;;;;;15.95;60.24;98968.03;4994790;28;20265;-49
2022/07/15 04:47:16;;;;;;;4.73;2.20;;;;;;;15.92;59.82;98977.13;4994776;28;20190;-49
2022/07/15 04:52:35;;;;;;;3.00;2.53;;;;;;;16.01;61.38;98975.25;4994500;28;20586;-50
2022/07/15 04:55:03;;;;;;;3.33;2.20;;;;;;;16.09;60.93;98971.72;4994932;28;20590;-50
2022/07/15 04:57:31;;;;;;;3.33;2.60;;;;;;;16.16;60.78;98971.81;4994677;28;20200;-49
2022/07/15 05:00:04;;;;;;;4.40;3.30;;;;;;;16.18;61.13;98969.84;4994584;28;20197;-50
2022/07/15 05:02:36;;;;;;;4.00;2.53;;;;;;;16.15;61.67;98978.09;4997013;28;20215;-50
2022/07/15 05:05:06;;;;;;;4.40;2.97;;;;;;;16.09;62.35;98974.38;5030848;28;20672;-50
2022/07/15 05:07:34;;;;;;;5.37;2.87;;;;;;;16.13;62.12;98969.53;4996177;28;20226;-50
2022/07/15 05:10:02;;;;;;;5.30;2.70;;;;;;;16.11;61.63;98963.63;4999809;28;20674;-50
2022/07/15 05:12:30;;;;;;;7.13;3.00;;;;;;;16.13;61.10;98964.28;5002639;28;20266;-50
2022/07/15 05:14:59;;;;;;;4.73;3.10;;;;;;;16.18;61.25;98972.47;5003518;28;20549;-50
2022/07/15 05:17:31;;;;;;;5.13;2.30;;;;;;;16.19;62.46;98966.19;4977950;28;20202;-50
2022/07/15 05:19:58;;;;;;;6.57;2.80;;;;;;;16.23;62.42;98970.13;4977965;28;20194;-50
2022/07/15 05:22:25;;;;;;;4.03;2.60;;;;;;;16.32;62.25;98969.03;4983419;28;20296;-50
2022/07/15 05:24:52;;;;;;;2.97;2.30;;;;;;;16.41;62.00;98968.97;5005503;28;20300;-50
2022/07/15 05:27:21;;;;;;;4.50;2.57;;;;;;;16.55;61.17;98965.53;5010408;28;20637;-50
2022/07/15 05:29:48;;;;;;;3.03;2.33;;;;;;;16.73;61.41;98972.25;5017413;28;20190;-50
2022/07/15 05:32:17;;;;;;;2.87;2.50;;;;;;;16.91;61.60;98972.69;5034667;28;20217;-49
2022/07/15 05:34:47;;;;;;;6.17;2.67;;;;;;;17.03;60.64;98973.06;5016972;28;20286;-49
2022/07/15 05:37:17;;;;;;;6.55;2.70;;;;;;;17.21;60.44;98980.56;5016831;28;20448;-49
2022/07/15 05:39:54;;;;;;;4.67;2.60;;;;;;;17.39;60.73;98988.09;5016825;28;20233;-50
2022/07/15 05:42:41;;;;;;;7.13;2.77;;;;;;;17.58;58.58;98991.13;5016633;28;20574;-50
2022/07/15 05:45:10;;;;;;;5.00;2.30;;;;;;;17.70;58.04;98994.91;5016821;28;20607;-50
2022/07/15 05:47:47;;;;;;;3.73;2.70;;;;;;;17.87;57.40;98991.22;5017214;28;20192;-50
2022/07/15 05:50:18;;;;;;;9.30;2.53;;;;;;;18.10;56.94;98997.09;5016957;28;20198;-50
2022/07/15 05:52:47;;;;;;;5.07;3.70;;;;;;;18.29;55.67;98997.47;5016453;28;20211;-50
2022/07/15 05:55:15;;;;;;;6.90;3.07;;;;;;;18.48;54.80;98992.50;5016709;28;20228;-50
2022/07/15 05:57:43;;;;;;;5.63;3.00;;;;;;;18.63;54.23;99003.78;5016548;28;20203;-50
2022/07/15 06:00:12;;;;;;;6.53;4.10;;;;;;;18.67;54.65;99005.03;5016371;28;20218;-50
2022/07/15 06:02:45;;;;;;;6.57;3.40;;;;;;;18.89;55.29;99005.75;5016058;28;20208;-50
2022/07/15 06:05:22;;;;;;;7.57;3.87;;;;;;;19.15;53.51;99012.22;5016351;28;20267;-50
2022/07/15 06:07:53;;;;;;;6.23;4.00;;;;;;;19.25;52.74;99006.56;5016413;28;20211;-50
2022/07/15 06:10:27;;;;;;;6.30;4.37;;;;;;;19.20;51.50;99016.91;5016307;28;20673;-50
2022/07/15 06:12:56;;;;;;;7.50;4.97;;;;;;;19.13;51.99;99010.78;5015422;28;20220;-50
2022/07/15 06:15:23;;;;;;;7.60;5.13;;;;;;;19.13;52.61;99014.25;5015974;28;20276;-50
2022/07/15 06:17:53;;;;;;;8.67;5.80;;;;;;;19.21;51.93;99007.16;5015948;28;20200;-50
2022/07/15 06:20:25;;;;;;;7.73;5.67;;;;;;;19.05;52.81;99010.97;5015995;28;20199;-50
2022/07/15 06:22:53;;;;;;;8.93;5.13;;;;;;;19.12;52.86;99014.44;5015623;28;20212;-50
2022/07/15 06:25:21;;;;;;;6.90;4.10;;;;;;;19.21;51.59;99012.44;5015800;28;20624;-50
2022/07/15 06:27:52;;;;;;;5.43;3.30;;;;;;;19.27;49.93;99015.13;5015778;28;20189;-50
2022/07/15 06:30:21;;;;;;;6.33;4.23;;;;;;;19.21;52.22;99020.41;5015745;28;20201;-50
2022/07/15 06:32:49;;;;;;;7.27;4.13;;;;;;;19.25;52.42;99011.03;5015379;28;20212;-50
2022/07/15 06:35:16;;;;;;;8.20;4.00;;;;;;;18.99;53.00;99008.09;5015723;28;20189;-50
2022/07/15 06:37:46;;;;;;;12.40;4.43;;;;;;;19.20;53.58;99006.34;5033610;28;20189;-50
2022/07/15 06:40:13;;;;;;;8.20;3.63;;;;;;;19.46;52.52;99015.38;5015406;28;20203;-51
2022/07/15 06:42:40;;;;;;;10.70;4.23;;;;;;;19.57;52.51;99009.50;5015095;28;20568;-50
2022/07/15 06:45:11;;;;;;;7.37;3.97;;;;;;;19.84;51.88;99014.88;5015248;28;20597;-50
2022/07/15 06:47:41;;;;;;;8.73;4.33;;;;;;;19.86;51.39;99010.19;5015335;28;20196;-50
2022/07/15 06:50:08;;;;;;;9.70;3.97;;;;;;;19.91;51.85;99009.59;5015523;28;20190;-50
2022/07/15 06:52:36;;;;;;;6.17;3.77;;;;;;;20.08;51.61;99010.03;5014865;28;20219;-50
2022/07/15 06:55:08;;;;;;;6.23;3.67;;;;;;;20.33;51.54;99012.03;5015192;28;20280;-50
2022/07/15 06:57:35;;;;;;;6.90;3.57;;;;;;;20.57;48.94;99020.38;5015314;28;20203;-51
2022/07/15 07:00:05;;;;;;;6.77;3.33;;;;;;;20.41;48.36;99013.69;5015224;28;20205;-50
2022/07/15 07:02:36;;;;;;;5.27;3.43;;;;;;;20.37;49.60;99018.56;5015055;28;20265;-50
2022/07/15 07:05:04;;;;;;;7.10;3.27;;;;;;;20.34;48.30;99013.66;5015145;28;20254;-50
2022/07/15 07:07:31;;;;;;;7.70;3.60;;;;;;;20.47;48.63;99018.97;5014934;28;20193;-50
2022/07/15 07:09:58;;;;;;;4.37;2.97;;;;;;;20.62;49.18;99021.41;5015042;28;20203;-50
2022/07/15 07:12:27;;;;;;;5.23;3.40;;;;;;;20.60;48.43;99012.84;5014681;28;20635;-50
2022/07/15 07:14:54;;;;;;;4.90;3.30;;;;;;;20.50;48.79;99029.16;5032671;28;20188;-51
2022/07/15 07:17:21;;;;;;;12.17;3.23;;;;;;;20.47;50.35;99018.97;5032724;28;20193;-50
2022/07/15 07:19:49;;;;;;;5.40;3.03;;;;;;;20.64;49.16;99023.84;5014824;28;20247;-50
2022/07/15 07:22:16;;;;;;;8.30;3.17;;;;;;;20.56;49.57;99016.94;5032315;28;20220;-50
2022/07/15 07:24:44;;;;;;;7.10;3.37;;;;;;;20.64;49.98;99015.88;5031911;28;20205;-50
2022/07/15 07:27:11;;;;;;;7.17;3.17;;;;;;;20.77;49.42;99013.22;5032442;28;20292;-50
2022/07/15 07:29:39;;;;;;;8.03;2.73;;;;;;;20.86;49.97;99019.13;5032601;28;20195;-50
2022/07/15 07:32:07;;;;;;;4.43;2.97;;;;;;;21.01;49.36;99020.72;5032251;28;20194;-50
2022/07/15 07:34:33;;;;;;;4.67;2.53;;;;;;;21.06;49.34;99021.72;5032456;28;20681;-50
2022/07/15 07:37:01;;;;;;;6.47;3.23;;;;;;;21.04;49.01;99022.94;5032456;28;20428;-50
2022/07/15 07:39:28;;;;;;;3.47;2.50;;;;;;;21.04;49.61;99026.44;5032315;28;20190;-51
2022/07/15 07:41:55;;;;;;;7.53;3.13;;;;;;;20.88;49.23;99019.72;5032264;28;20332;-50
2022/07/15 07:44:23;;;;;;;3.87;2.60;;;;;;;20.83;49.72;99021.38;5014401;28;20227;-50
2022/07/15 07:46:52;;;;;;;6.60;3.00;;;;;;;20.82;49.16;99020.56;5027461;28;20571;-51
2022/07/15 07:49:19;;;;;;;8.53;2.90;;;;;;;20.77;48.83;99018.53;5020712;28;20210;-50
2022/07/15 07:51:47;;;;;;;6.70;2.83;;;;;;;20.73;49.30;99019.94;5020398;28;20230;-50
2022/07/15 07:54:14;;;;;;;5.60;2.83;;;;;;;20.71;49.95;99023.81;5024094;28;20310;-50
2022/07/15 07:56:42;;;;;;;4.33;2.87;;;;;;;20.60;50.14;99031.41;5032188;28;20262;-50
2022/07/15 07:59:09;;;;;;;5.67;2.90;;;;;;;20.56;49.93;99029.34;5032296;28;20285;-50
2022/07/15 08:01:36;;;;;;;5.40;2.60;;;;;;;20.50;49.54;99028.34;5032161;28;20193;-50
2022/07/15 08:04:06;;;;;;;4.87;2.67;;;;;;;20.55;49.65;99030.38;5032006;28;20273;-50
2022/07/15 08:06:34;;;;;;;10.80;3.10;;;;;;;20.63;49.06;99028.34;5032092;28;20222;-50
2022/07/15 08:09:01;;;;;;;6.63;2.80;;;;;;;20.89;48.91;99021.34;5032305;28;20188;-50
2022/07/15 08:11:29;;;;;;;5.90;2.63;;;;;;;21.11;49.22;99030.91;5032135;28;20186;-50
2022/07/15 08:13:56;;;;;;;4.63;2.83;;;;;;;21.13;47.85;99032.31;5031748;28;20680;-50
2022/07/15 08:16:24;;;;;;;9.80;2.80;;;;;;;21.23;46.24;99026.53;5014317;28;20215;-50
2022/07/15 08:18:53;;;;;;;6.63;2.27;;;;;;;21.35;44.97;99027.50;5032047;28;20191;-50
2022/07/15 08:21:22;;;;;;;4.97;2.73;;;;;;;21.37;45.29;99020.16;5032092;28;20509;-50
2022/07/15 08:23:49;;;;;;;4.77;2.10;;;;;;;21.47;45.55;99018.88;5031733;28;20211;-50
2022/07/15 08:26:22;;;;;;;6.43;2.20;;;;;;;21.60;44.43;99024.13;5031999;28;20209;-50
2022/07/15 08:28:49;;;;;;;3.93;2.10;;;;;;;21.62;44.04;99022.09;5031641;28;20751;-50
2022/07/15 08:31:17;;;;;;;5.13;2.37;;;;;;;21.77;44.77;99026.31;5032054;28;20196;-50
2022/07/15 08:33:43;;;;;;;4.03;2.27;;;;;;;21.91;43.49;99030.50;5031659;28;20213;-50
2022/07/15 08:36:11;;;;;;;4.43;2.53;;;;;;;22.04;43.04;99028.78;5034311;28;20187;-50
2022/07/15 08:38:40;;;;;;;3.93;2.30;;;;;;;22.09;42.25;99029.75;5035692;28;20270;-50
2022/07/15 08:41:07;;;;;;;7.37;2.60;;;;;;;22.05;41.48;99033.06;5035505;28;20365;-50
2022/07/15 08:43:35;;;;;;;5.20;2.30;;;;;;;22.16;42.10;99034.19;5035581;28;20214;-50
2022/07/15 08:46:22;;;;;;;5.00;2.67;;;;;;;22.26;42.33;99045.97;5036026;28;20582;-50
2022/07/15 08:48:51;;;;;;;4.37;2.63;;;;;;;22.16;42.16;99044.84;5035534;28;20183;-50
2022/07/15 08:51:23;;;;;;;5.60;2.50;;;;;;;22.27;42.23;99052.91;5035389;28;20249;-50
2022/07/15 08:53:54;;;;;;;3.90;2.30;;;;;;;22.43;42.16;99050.75;5035089;28;20297;-50
2022/07/15 08:56:22;;;;;;;4.40;2.20;;;;;;;22.39;41.92;99053.03;5035450;28;20276;-50
2022/07/15 08:58:50;;;;;;;6.33;2.20;;;;;;;22.37;40.99;99052.44;5035306;28;20191;-50
2022/07/15 09:01:18;;;;;;;6.20;2.53;;;;;;;22.49;40.29;99057.06;5017384;28;20199;-50
2022/07/15 09:03:44;;;;;;;7.20;2.53;;;;;;;22.41;40.79;99058.13;5035092;28;20205;-50
2022/07/15 09:06:31;;;;;;;5.93;2.30;;;;;;;22.36;41.02;99061.44;5001103;28;20216;-50
2022/07/15 09:09:20;;;;;;;3.77;2.40;;;;;;;22.61;40.71;99057.16;4987740;28;20223;-50
2022/07/15 09:11:55;;;;;;;5.93;2.40;;;;;;;22.74;40.12;99061.56;5005140;28;20677;-50
2022/07/15 09:14:25;;;;;;;4.73;2.40;;;;;;;22.71;39.53;99052.16;4986395;28;20203;-50
2022/07/15 09:17:06;;;;;;;4.80;2.07;;;;;;;22.84;39.87;99061.84;5004422;28;20202;-50
2022/07/15 09:19:58;;;;;;;6.07;2.00;;;;;;;22.95;39.95;99070.97;4987175;28;20257;-50
2022/07/15 09:22:27;;;;;;;5.77;2.50;;;;;;;22.93;39.06;99065.03;5005499;28;20214;-50
2022/07/15 09:25:02;;;;;;;4.73;2.47;;;;;;;23.02;38.87;99066.38;5004463;28;20192;-50
2022/07/15 09:27:34;;;;;;;7.70;2.20;;;;;;;23.12;40.65;99061.34;5003913;28;20259;-50
2022/07/15 09:36:05;;;;;;;6.77;2.30;;;;;;;23.17;37.96;99062.53;5005788;28;20195;-50
2022/07/15 09:38:41;;;;;;;4.97;2.20;;;;;;;23.07;38.14;99063.03;5003259;28;20440;-50
2022/07/15 09:41:10;;;;;;;5.27;2.67;;;;;;;23.11;38.50;99072.22;5003444;28;20467;-48
2022/07/15 09:43:46;;;;;;;5.87;2.50;;;;;;;23.11;38.58;99066.88;5001533;28;20271;-48
2022/07/15 09:46:13;;;;;;;5.57;2.07;;;;;;;23.06;38.42;99069.41;5016263;28;20240;-48
2022/07/15 09:48:41;;;;;;;5.50;2.03;;;;;;;22.98;38.89;99071.31;5022392;28;20192;-48
2022/07/15 09:51:09;;;;;;;5.73;2.27;;;;;;;23.04;38.54;99071.47;5008975;28;20231;-49
2022/07/15 09:53:37;;;;;;;6.27;2.30;;;;;;;23.18;38.26;99064.16;5006723;28;20220;-50
2022/07/15 09:56:07;;;;;;;7.20;2.70;;;;;;;23.15;38.47;99076.88;5010061;28;20250;-49
2022/07/15 09:58:38;;;;;;;6.73;2.70;;;;;;;23.21;38.59;99061.06;5012041;28;20219;-49
2022/07/15 10:01:07;;;;;;;8.37;2.50;;;;;;;23.33;38.00;99064.59;5012533;28;20646;-49
2022/07/15 10:03:35;;;;;;;5.17;2.53;;;;;;;23.41;37.81;99066.16;5011541;28;20208;-49
2022/07/15 10:06:03;;;;;;;10.40;2.40;;;;;;;23.29;38.33;99050.94;5008229;28;20200;-49
2022/07/15 10:08:31;;;;;;;9.87;2.50;;;;;;;23.50;38.33;99056.00;5019789;28;20203;-49
2022/07/15 10:10:59;;;;;;;6.50;2.23;;;;;;;23.54;37.21;99047.34;5025198;28;20189;-49
2022/07/15 10:13:51;;;;;;;3.67;2.20;;;;;;;23.68;37.83;99047.16;5033467;28;20205;-49
2022/07/15 10:16:37;;;;;;;6.87;2.53;;;;;;;23.78;36.34;99051.94;5009693;28;20688;-52
2022/07/15 10:19:16;;;;;;;5.50;2.30;;;;;;;23.79;36.84;99048.22;5004009;28;20668;-50
2022/07/15 10:21:53;;;;;;;3.03;2.27;;;;;;;23.86;37.65;99041.75;5030389;28;20333;-49
2022/07/15 10:24:35;;;;;;;4.93;2.43;;;;;;;23.98;36.85;99048.97;5029969;28;20184;-49
2022/07/15 10:27:15;;;;;;;5.30;2.10;;;;;;;23.84;36.44;99041.19;5028119;28;20673;-49
2022/07/15 10:29:43;;;;;;;5.27;2.37;;;;;;;23.94;36.06;99037.94;5013228;28;20248;-49
2022/07/15 10:32:12;;;;;;;3.67;2.30;;;;;;;23.87;36.21;99035.38;5013841;28;20184;-48
2022/07/15 10:34:40;;;;;;;3.93;2.47;;;;;;;23.92;36.49;99040.03;5014533;28;20195;-49
2022/07/15 10:37:10;;;;;;;4.37;2.37;;;;;;;24.02;36.83;99036.81;5014288;28;20181;-49
2022/07/15 10:40:05;;;;;;;4.50;2.00;;;;;;;24.01;37.18;99041.38;5014701;28;20196;-49
2022/07/15 10:43:01;;;;;;;9.33;2.40;;;;;;;24.06;36.77;99034.53;5014442;28;20563;-48
2022/07/15 10:45:28;;;;;;;5.80;2.20;;;;;;;24.15;37.01;99036.63;5014408;28;20538;-48
2022/07/15 10:48:28;;;;;;;4.87;2.20;;;;;;;24.18;36.54;99027.38;5014471;28;20220;-49
2022/07/15 10:50:56;;;;;;;3.17;2.10;;;;;;;24.33;35.58;99026.91;4996608;28;20197;-49
2022/07/15 10:53:46;;;;;;;3.87;2.30;;;;;;;24.45;35.31;99017.03;5014379;28;20222;-48
2022/07/15 10:56:32;;;;;;;6.20;2.53;;;;;;;24.46;34.53;99023.19;4996149;28;20224;-49
2022/07/15 10:59:10;;;;;;;4.03;2.20;;;;;;;24.30;35.02;99032.69;5013927;28;20203;-49
2022/07/15 11:01:38;;;;;;;5.13;2.53;;;;;;;24.17;35.09;99036.41;4992866;28;20613;-48
2022/07/15 11:04:14;;;;;;;4.97;2.20;;;;;;;24.24;35.20;99026.44;5006559;28;20262;-49
2022/07/15 11:07:18;;;;;;;7.70;1.97;;;;;;;24.35;35.03;99030.16;5008302;28;20217;-49
2022/07/15 11:09:47;;;;;;;4.37;2.17;;;;;;;24.46;34.98;99018.66;5013394;28;20207;-50
2022/07/15 11:12:15;;;;;;;6.00;2.30;;;;;;;24.38;34.27;99029.69;5032384;28;20570;-49
2022/07/15 11:14:47;;;;;;;6.73;2.50;;;;;;;24.27;34.88;99022.47;5014968;28;20185;-49
2022/07/15 11:17:17;;;;;;;5.10;2.17;;;;;;;24.56;33.99;99028.75;5015056;28;20201;-49
2022/07/15 11:19:51;;;;;;;7.17;2.33;;;;;;;24.53;34.70;99028.41;5032966;28;20668;-49
2022/07/15 11:22:20;;;;;;;4.20;2.00;;;;;;;24.67;34.24;99016.44;5032126;28;20674;-49
2022/07/15 11:24:47;;;;;;;3.10;2.07;;;;;;;24.78;34.64;99022.03;5032685;28;20597;-49
2022/07/15 11:27:15;;;;;;;4.90;2.40;;;;;;;24.85;34.02;99020.84;5032893;28;20199;-49
2022/07/15 11:29:47;;;;;;;4.90;2.30;;;;;;;24.86;33.71;99021.69;5032638;28;20188;-49
2022/07/15 11:32:16;;;;;;;6.47;2.37;;;;;;;24.66;33.96;99014.81;5014264;28;20216;-49
2022/07/15 11:34:45;;;;;;;7.33;2.47;;;;;;;24.89;34.25;99024.69;5002017;28;20192;-49
2022/07/15 11:37:18;;;;;;;9.23;2.33;;;;;;;24.87;33.67;99017.97;4986107;28;20194;-49
2022/07/15 11:39:47;;;;;;;4.90;2.43;;;;;;;24.73;34.18;99020.06;5003949;28;20186;-49
2022/07/15 11:45:05;;;;;;;4.10;2.30;;;;;;;24.53;33.86;99015.88;4995770;28;20249;-49
2022/07/15 11:47:33;;;;;;;6.60;2.40;;;;;;;24.61;33.38;99007.50;4997365;28;20226;-50
2022/07/15 11:50:01;;;;;;;8.37;1.90;;;;;;;24.73;34.63;99012.06;5005347;28;20194;-49
2022/07/15 11:52:29;;;;;;;5.00;2.27;;;;;;;24.78;33.66;99022.84;5012308;28;20203;-49
2022/07/15 11:54:57;;;;;;;6.23;2.40;;;;;;;25.00;33.44;99023.00;4995025;28;20216;-50
2022/07/15 11:57:24;;;;;;;6.87;2.53;;;;;;;24.89;32.92;99014.00;5013165;28;20245;-49
2022/07/15 11:59:54;;;;;;;6.90;2.20;;;;;;;24.94;32.89;99020.50;5012858;28;20261;-49